Time;durP1;ratioP1;P1;durP2;ratioP2;P2;SDS_P1;SDS_P2;PMS_P1;PMS_P2;Temp;Humidity;BMP_temperature;BMP_pressure;BME280_temperature;BME280_humidity;BME280_pressure;Samples;Min_cycle;Max_cycle;Signal;HPM_P1;HPM_P2
2022/11/13 00:02:00;;;;;;;16.42;8.23;;;9.40;98.50;;;;;;5072211;28;20353;-72
2022/11/13 00:04:25;;;;;;;19.48;8.38;;;9.30;98.50;;;;;;5071775;28;20167;-72
2022/11/13 00:06:51;;;;;;;17.13;7.90;;;9.30;98.60;;;;;;5071532;28;20035;-72
2022/11/13 00:09:17;;;;;;;16.52;7.72;;;9.30;98.60;;;;;;5054286;28;20090;-72
2022/11/13 00:11:42;;;;;;;16.63;8.57;;;9.30;98.50;;;;;;5072307;28;20034;-73
2022/11/13 00:14:08;;;;;;;23.52;10.63;;;9.30;98.50;;;;;;5071848;28;20028;-71
2022/11/13 00:16:34;;;;;;;15.70;8.25;;;9.40;98.50;;;;;;5070595;28;20450;-72
2022/11/13 00:18:59;;;;;;;14.73;7.40;;;9.30;98.40;;;;;;5070222;28;20048;-73
2022/11/13 00:21:28;;;;;;;17.48;7.28;;;9.20;98.40;;;;;;5071518;28;20028;-72
2022/11/13 00:23:55;;;;;;;17.95;7.97;;;9.20;98.50;;;;;;5072069;28;20312;-72
2022/11/13 00:26:27;;;;;;;15.25;6.72;;;9.10;98.50;;;;;;5071094;28;20078;-72
2022/11/13 00:28:59;;;;;;;16.33;7.40;;;9.10;98.50;;;;;;5071294;28;20044;-72
2022/11/13 00:31:25;;;;;;;16.10;7.60;;;9.00;98.50;;;;;;5053421;28;20028;-70
2022/11/13 00:33:51;;;;;;;17.25;8.50;;;9.00;98.50;;;;;;5053423;28;20467;-71
2022/11/13 00:36:20;;;;;;;14.10;7.70;;;8.90;98.50;;;;;;5053412;28;20473;-72
2022/11/13 00:38:46;;;;;;;14.07;7.72;;;8.90;98.80;;;;;;5053827;28;20044;-71
2022/11/13 00:41:12;;;;;;;15.07;8.07;;;8.90;98.60;;;;;;5070924;28;20100;-71
2022/11/13 00:43:37;;;;;;;15.13;8.93;;;8.90;98.50;;;;;;5070936;28;20577;-72
2022/11/13 00:46:04;;;;;;;13.15;7.75;;;8.90;98.50;;;;;;5071045;28;20059;-71
2022/11/13 00:48:30;;;;;;;19.50;8.05;;;8.80;98.50;;;;;;5071338;28;20116;-71
2022/11/13 00:50:55;;;;;;;12.95;8.10;;;8.80;98.50;;;;;;5071599;28;20104;-71
2022/11/13 00:53:22;;;;;;;16.45;7.90;;;8.80;98.50;;;;;;5070802;28;20040;-71
2022/11/13 00:55:47;;;;;;;18.20;7.60;;;8.80;98.50;;;;;;5070890;28;20028;-70
2022/11/13 00:58:14;;;;;;;14.05;8.02;;;8.80;98.50;;;;;;5070907;28;20432;-70
2022/11/13 01:00:42;;;;;;;16.25;7.82;;;8.80;98.60;;;;;;5070619;28;20070;-70
2022/11/13 01:03:08;;;;;;;14.57;7.15;;;8.90;98.40;;;;;;5070570;28;20024;-70
2022/11/13 01:05:36;;;;;;;19.33;8.15;;;8.80;98.50;;;;;;5071389;28;20020;-70
2022/11/13 01:08:02;;;;;;;17.27;8.27;;;8.80;98.50;;;;;;5070142;28;20036;-70
2022/11/13 01:10:28;;;;;;;15.50;7.70;;;8.80;98.50;;;;;;5070930;28;20174;-70
2022/11/13 01:12:53;;;;;;;16.38;7.65;;;8.70;98.40;;;;;;5070820;28;20123;-70
2022/11/13 01:15:19;;;;;;;13.63;7.78;;;8.70;98.50;;;;;;5070316;28;20462;-71
2022/11/13 01:17:44;;;;;;;14.88;8.35;;;8.70;98.60;;;;;;5070960;28;20531;-71
2022/11/13 01:20:10;;;;;;;14.68;7.45;;;8.60;98.50;;;;;;5070465;28;20561;-70
2022/11/13 01:22:36;;;;;;;15.68;7.82;;;8.60;98.60;;;;;;5070331;28;20337;-70
2022/11/13 01:25:02;;;;;;;14.05;7.30;;;8.60;98.60;;;;;;5070455;28;20035;-70
2022/11/13 01:27:28;;;;;;;13.25;7.18;;;8.60;98.60;;;;;;5052843;28;20037;-71
2022/11/13 01:29:54;;;;;;;16.20;8.05;;;8.60;98.60;;;;;;5072618;28;20028;-71
2022/11/13 01:32:20;;;;;;;14.75;7.53;;;8.50;98.90;;;;;;5070342;28;20029;-70
2022/11/13 01:34:45;;;;;;;20.08;7.93;;;8.50;98.60;;;;;;5070382;28;20024;-71
2022/11/13 01:37:11;;;;;;;13.25;7.38;;;8.50;98.80;;;;;;5070071;28;20362;-70
2022/11/13 01:39:37;;;;;;;15.48;8.32;;;8.40;98.80;;;;;;5069435;28;20086;-70
2022/11/13 01:42:03;;;;;;;18.38;8.50;;;8.40;98.70;;;;;;5069270;28;20052;-70
2022/11/13 01:44:55;;;;;;;14.52;7.80;;;8.40;98.70;;;;;;5069916;28;20020;-70
2022/11/13 01:47:23;;;;;;;16.05;8.15;;;8.40;98.70;;;;;;5052433;28;20021;-72
2022/11/13 01:49:53;;;;;;;17.08;8.00;;;8.40;98.60;;;;;;5070474;28;20029;-72
2022/11/13 01:52:29;;;;;;;17.63;8.25;;;8.40;98.70;;;;;;5052067;28;20108;-71
2022/11/13 01:55:08;;;;;;;19.90;8.18;;;8.30;98.80;;;;;;5070013;28;20503;-71
2022/11/13 01:57:34;;;;;;;15.20;8.15;;;8.30;98.90;;;;;;5069788;28;20102;-71
2022/11/13 02:00:07;;;;;;;17.92;8.80;;;8.30;98.90;;;;;;5069321;28;20462;-71
2022/11/13 02:02:33;;;;;;;15.63;8.80;;;8.30;99.20;;;;;;5070130;28;20139;-70
2022/11/13 02:04:58;;;;;;;15.93;7.72;;;8.30;99.10;;;;;;5069967;28;20028;-71
2022/11/13 02:07:25;;;;;;;15.52;8.30;;;8.40;99.20;;;;;;5052020;28;20025;-70
2022/11/13 02:09:54;;;;;;;14.32;7.80;;;8.40;99.20;;;;;;5069938;28;20032;-70
2022/11/13 02:12:36;;;;;;;16.08;8.13;;;8.30;99.00;;;;;;5068732;28;20056;-71
2022/11/13 02:15:06;;;;;;;18.70;9.30;;;8.30;98.80;;;;;;5052001;28;20025;-71
2022/11/13 02:18:01;;;;;;;19.38;9.50;;;8.30;98.90;;;;;;5070371;28;20427;-71
2022/11/13 02:20:39;;;;;;;19.70;9.30;;;8.30;99.40;;;;;;5073658;28;20032;-70
2022/11/13 02:23:21;;;;;;;17.52;9.00;;;8.20;99.20;;;;;;5055782;28;20501;-72
2022/11/13 02:25:50;;;;;;;15.10;8.70;;;8.30;99.20;;;;;;5056085;28;20398;-71
2022/11/13 02:28:16;;;;;;;15.25;8.85;;;8.30;99.20;;;;;;5072251;28;20025;-73
2022/11/13 02:30:42;;;;;;;16.92;8.52;;;8.30;99.30;;;;;;5073611;28;20094;-71
2022/11/13 02:33:29;;;;;;;19.83;8.82;;;8.20;99.30;;;;;;5073277;28;20450;-71
2022/11/13 02:35:55;;;;;;;16.30;8.48;;;8.20;99.10;;;;;;5082535;28;20027;-71
2022/11/13 02:38:20;;;;;;;14.75;8.23;;;8.20;99.10;;;;;;5093550;28;20024;-72
2022/11/13 02:40:46;;;;;;;14.18;7.57;;;8.30;99.00;;;;;;5093448;28;20469;-71
2022/11/13 02:43:12;;;;;;;16.23;8.35;;;8.20;98.90;;;;;;5093535;28;20036;-71
2022/11/13 02:45:38;;;;;;;16.23;8.25;;;8.10;99.00;;;;;;5093284;28;20469;-70
2022/11/13 02:48:05;;;;;;;18.75;9.20;;;8.10;98.90;;;;;;5093380;28;20053;-74
2022/11/13 02:50:31;;;;;;;12.25;8.02;;;8.00;99.00;;;;;;5093918;28;20445;-73
2022/11/13 02:52:57;;;;;;;13.32;8.20;;;8.00;98.90;;;;;;5093412;28;20099;-71
2022/11/13 02:55:24;;;;;;;17.90;9.60;;;8.10;99.00;;;;;;5093130;28;20492;-71
2022/11/13 02:57:49;;;;;;;14.10;8.38;;;8.00;99.00;;;;;;5093110;28;20043;-71
2022/11/13 03:00:15;;;;;;;20.42;9.15;;;8.10;99.00;;;;;;5092748;28;20024;-72
2022/11/13 03:02:41;;;;;;;16.20;8.52;;;8.10;98.90;;;;;;5093575;28;20016;-72
2022/11/13 03:05:07;;;;;;;18.30;9.25;;;8.10;99.10;;;;;;5093387;28;20043;-72
2022/11/13 03:07:33;;;;;;;19.73;8.95;;;8.10;99.10;;;;;;5092988;28;20036;-72
2022/11/13 03:09:58;;;;;;;19.27;8.10;;;8.00;99.30;;;;;;5075188;28;20449;-72
2022/11/13 03:12:24;;;;;;;17.20;8.32;;;8.10;99.00;;;;;;5093028;28;20033;-72
2022/11/13 03:14:50;;;;;;;14.27;7.55;;;8.00;98.90;;;;;;5093525;28;20035;-72
2022/11/13 03:17:16;;;;;;;23.90;9.25;;;8.10;99.10;;;;;;5092930;28;20112;-71
2022/11/13 03:19:41;;;;;;;18.85;8.98;;;8.10;99.10;;;;;;5092885;28;20036;-71
2022/11/13 03:22:07;;;;;;;15.77;8.85;;;7.90;99.10;;;;;;5092854;28;20024;-71
2022/11/13 03:24:32;;;;;;;17.55;8.38;;;8.00;99.20;;;;;;5092805;28;20047;-71
2022/11/13 03:26:58;;;;;;;16.30;9.07;;;8.00;99.30;;;;;;5093179;28;20026;-71
2022/11/13 03:29:24;;;;;;;20.77;8.90;;;8.00;99.20;;;;;;5092811;28;20063;-71
2022/11/13 03:31:50;;;;;;;17.63;8.82;;;8.00;99.20;;;;;;5073961;28;20059;-73
2022/11/13 03:34:16;;;;;;;17.25;9.48;;;8.00;99.10;;;;;;5092393;28;20342;-73
2022/11/13 03:36:41;;;;;;;14.00;8.50;;;8.00;99.10;;;;;;5074654;28;20028;-72
2022/11/13 03:39:07;;;;;;;18.73;9.65;;;8.00;99.10;;;;;;5092394;28;20048;-72
2022/11/13 03:41:32;;;;;;;18.38;9.65;;;8.00;99.20;;;;;;5092690;28;20453;-72
2022/11/13 03:43:58;;;;;;;20.60;10.18;;;8.00;99.20;;;;;;5092382;28;20032;-72
2022/11/13 03:46:24;;;;;;;18.67;9.10;;;8.00;99.20;;;;;;5092377;28;20105;-72
2022/11/13 03:48:50;;;;;;;19.88;10.10;;;8.00;99.20;;;;;;5092269;28;20060;-72
2022/11/13 03:51:15;;;;;;;24.70;10.00;;;8.00;99.30;;;;;;5092384;28;20577;-73
2022/11/13 03:53:41;;;;;;;15.10;9.15;;;8.00;99.30;;;;;;5092615;28;20028;-72
2022/11/13 03:56:07;;;;;;;20.45;9.10;;;8.00;99.30;;;;;;5092086;28;20115;-72
2022/11/13 03:58:32;;;;;;;20.02;9.98;;;8.00;99.20;;;;;;5092011;28;20028;-73
2022/11/13 04:00:58;;;;;;;18.38;8.82;;;8.00;99.10;;;;;;5092008;28;20462;-72
2022/11/13 04:03:24;;;;;;;17.48;8.77;;;8.00;99.20;;;;;;5091579;28;20119;-71
2022/11/13 04:05:50;;;;;;;20.17;10.20;;;7.90;99.30;;;;;;5092508;28;20032;-73
2022/11/13 04:08:16;;;;;;;15.20;8.82;;;7.90;99.20;;;;;;5073697;28;20060;-72
2022/11/13 04:10:42;;;;;;;17.23;8.75;;;7.90;99.20;;;;;;5091711;28;20032;-72
2022/11/13 04:13:08;;;;;;;21.20;9.07;;;7.90;99.20;;;;;;5091693;28;20115;-72
2022/11/13 04:15:34;;;;;;;18.63;9.68;;;7.90;99.20;;;;;;5095993;28;20134;-73
2022/11/13 04:18:00;;;;;;;20.42;9.50;;;7.90;99.20;;;;;;5094473;28;20031;-73
2022/11/13 04:20:29;;;;;;;17.80;9.20;;;7.80;99.20;;;;;;5111667;28;20069;-74
2022/11/13 04:22:56;;;;;;;18.48;8.63;;;7.70;99.40;;;;;;5093697;28;20520;-72
2022/11/13 04:25:22;;;;;;;17.13;9.48;;;7.70;99.50;;;;;;5112025;28;20373;-73
2022/11/13 04:27:49;;;;;;;18.95;9.02;;;7.70;99.40;;;;;;5093779;28;20445;-73
2022/11/13 04:30:15;;;;;;;18.05;9.57;;;7.70;99.30;;;;;;5111641;28;20468;-72
2022/11/13 04:32:41;;;;;;;18.70;9.23;;;7.70;99.20;;;;;;5094087;28;20307;-72
2022/11/13 04:35:07;;;;;;;20.02;9.13;;;7.80;99.20;;;;;;5111688;28;20117;-74
2022/11/13 04:37:32;;;;;;;20.30;9.98;;;7.80;99.10;;;;;;5111697;28;20047;-71
2022/11/13 04:39:58;;;;;;;19.55;9.38;;;7.80;99.00;;;;;;5111455;28;20039;-72
2022/11/13 04:45:08;;;;;;;19.95;9.65;;;7.70;99.20;;;;;;5111975;28;20095;-74
2022/11/13 04:47:34;;;;;;;15.88;9.55;;;7.80;99.30;;;;;;5111780;28;20031;-72
2022/11/13 04:50:00;;;;;;;18.88;8.70;;;7.80;99.40;;;;;;5111277;28;20028;-72
2022/11/13 04:52:27;;;;;;;16.73;9.65;;;7.80;99.30;;;;;;5093176;28;20038;-72
2022/11/13 04:54:53;;;;;;;20.33;9.82;;;7.80;99.30;;;;;;5111158;28;20338;-73
2022/11/13 04:57:19;;;;;;;21.20;9.25;;;7.80;99.20;;;;;;5093041;28;20406;-73
2022/11/13 04:59:45;;;;;;;20.50;10.65;;;7.70;99.20;;;;;;5111758;28;20024;-73
2022/11/13 05:02:11;;;;;;;16.63;9.77;;;7.70;99.10;;;;;;5092995;28;20114;-71
2022/11/13 05:04:36;;;;;;;20.45;9.95;;;7.70;99.10;;;;;;5111057;28;20505;-72
2022/11/13 05:07:02;;;;;;;14.90;8.60;;;7.70;99.20;;;;;;5111185;28;20459;-72
2022/11/13 05:09:28;;;;;;;20.35;10.10;;;7.70;99.00;;;;;;5110853;28;20059;-71
2022/11/13 05:11:54;;;;;;;15.98;9.60;;;7.70;99.20;;;;;;5111517;28;20028;-72
2022/11/13 05:14:19;;;;;;;17.40;9.10;;;7.70;99.20;;;;;;5092891;28;20027;-72
2022/11/13 05:16:45;;;;;;;18.63;9.20;;;7.70;99.20;;;;;;5110771;28;20193;-72
2022/11/13 05:19:11;;;;;;;14.75;8.60;;;7.70;99.20;;;;;;5110670;28;20058;-73
2022/11/13 05:21:38;;;;;;;20.08;9.50;;;7.60;99.10;;;;;;5111173;28;20020;-73
2022/11/13 05:24:04;;;;;;;18.52;9.05;;;7.60;99.20;;;;;;5110657;28;20032;-73
2022/11/13 05:26:30;;;;;;;21.17;10.30;;;7.60;99.10;;;;;;5111448;28;20045;-73
2022/11/13 05:28:59;;;;;;;18.35;9.00;;;7.60;99.10;;;;;;5092838;28;20039;-73
2022/11/13 05:31:26;;;;;;;19.17;9.80;;;7.60;99.10;;;;;;5110757;28;20386;-72
2022/11/13 05:33:52;;;;;;;20.20;9.95;;;7.50;99.00;;;;;;5110811;28;20028;-72
2022/11/13 05:36:19;;;;;;;21.65;9.82;;;7.60;99.10;;;;;;5092768;28;20040;-72
2022/11/13 05:38:45;;;;;;;18.30;9.45;;;7.60;99.10;;;;;;5111147;28;20130;-72
2022/11/13 05:41:19;;;;;;;16.50;9.48;;;7.50;99.00;;;;;;5092394;28;20119;-73
2022/11/13 05:43:45;;;;;;;20.55;10.13;;;7.50;99.10;;;;;;5110565;28;20032;-73
2022/11/13 05:46:13;;;;;;;16.13;9.35;;;7.60;99.20;;;;;;5110506;28;20077;-72
2022/11/13 05:48:40;;;;;;;17.55;9.40;;;7.60;99.10;;;;;;5092355;28;20342;-73
2022/11/13 05:51:12;;;;;;;19.02;9.85;;;7.60;99.30;;;;;;5110597;28;20011;-73
2022/11/13 05:53:38;;;;;;;21.30;9.40;;;7.60;99.00;;;;;;5112153;28;20024;-73
2022/11/13 05:56:15;;;;;;;17.05;9.02;;;7.60;99.20;;;;;;5115142;28;20365;-72
2022/11/13 05:58:42;;;;;;;24.00;10.13;;;7.60;99.10;;;;;;5114807;28;20465;-72
2022/11/13 06:01:18;;;;;;;15.55;8.52;;;7.60;98.90;;;;;;5114809;28;20093;-71
2022/11/13 06:03:44;;;;;;;16.55;9.43;;;7.60;99.00;;;;;;5114824;28;20036;-72
2022/11/13 06:06:13;;;;;;;18.75;9.50;;;7.60;98.80;;;;;;5114616;28;20027;-73
2022/11/13 06:08:38;;;;;;;20.13;9.88;;;7.60;99.00;;;;;;5115246;28;20318;-73
2022/11/13 06:11:07;;;;;;;16.73;9.30;;;7.60;99.10;;;;;;5114513;28;20020;-73
2022/11/13 06:13:33;;;;;;;16.05;8.93;;;7.60;99.00;;;;;;5096298;28;20027;-73
2022/11/13 06:16:01;;;;;;;22.67;10.55;;;7.60;99.00;;;;;;5114304;28;20525;-73
2022/11/13 06:18:27;;;;;;;19.75;9.23;;;7.50;98.90;;;;;;5114336;28;20059;-72
2022/11/13 06:20:53;;;;;;;17.35;9.27;;;7.50;99.30;;;;;;5114813;28;20019;-73
2022/11/13 06:23:19;;;;;;;18.02;9.20;;;7.50;99.00;;;;;;5096568;28;20027;-74
2022/11/13 06:25:45;;;;;;;22.23;9.73;;;7.50;99.10;;;;;;5096411;28;20032;-73
2022/11/13 06:28:11;;;;;;;20.58;9.80;;;7.40;99.10;;;;;;5114156;28;20476;-73
2022/11/13 06:30:36;;;;;;;16.25;9.68;;;7.50;99.00;;;;;;5114270;28;20453;-72
2022/11/13 06:33:02;;;;;;;16.27;9.93;;;7.40;99.00;;;;;;5114238;28;20119;-72
2022/11/13 06:35:28;;;;;;;18.35;9.45;;;7.50;99.00;;;;;;5096549;28;20104;-72
2022/11/13 06:37:54;;;;;;;21.35;10.05;;;7.30;99.00;;;;;;5114326;28;20059;-73
2022/11/13 06:40:20;;;;;;;16.70;9.63;;;7.40;99.00;;;;;;5114168;28;20036;-73
2022/11/13 06:42:46;;;;;;;19.92;9.05;;;7.40;99.00;;;;;;5095900;28;20101;-75
2022/11/13 06:45:11;;;;;;;20.20;9.57;;;7.40;99.00;;;;;;5113708;28;20024;-73
2022/11/13 06:47:37;;;;;;;20.90;10.10;;;7.60;99.10;;;;;;5096201;28;20031;-73
2022/11/13 06:50:04;;;;;;;18.00;9.68;;;7.60;99.00;;;;;;5113692;28;20037;-73
2022/11/13 06:52:29;;;;;;;23.17;10.75;;;7.60;99.00;;;;;;5113543;28;20043;-75
2022/11/13 06:54:55;;;;;;;24.85;10.48;;;7.70;98.70;;;;;;5113780;28;20399;-73
2022/11/13 06:57:21;;;;;;;16.05;9.73;;;7.60;98.80;;;;;;5113936;28;20035;-73
2022/11/13 06:59:46;;;;;;;22.73;10.10;;;7.60;98.90;;;;;;5113970;28;20405;-71
2022/11/13 07:02:12;;;;;;;19.55;9.80;;;7.60;98.60;;;;;;5113915;28;20031;-71
2022/11/13 07:04:38;;;;;;;24.08;11.38;;;7.50;98.70;;;;;;5112747;28;20038;-73
2022/11/13 07:07:03;;;;;;;20.23;9.48;;;7.50;98.80;;;;;;5112770;28;20042;-73
2022/11/13 07:09:30;;;;;;;19.08;9.30;;;7.40;98.70;;;;;;5113292;28;20051;-74
2022/11/13 07:11:55;;;;;;;21.55;10.05;;;7.40;98.70;;;;;;5113609;28;20030;-72
2022/11/13 07:14:21;;;;;;;20.52;11.40;;;7.40;98.80;;;;;;5113095;28;20023;-73
2022/11/13 07:16:47;;;;;;;20.15;9.82;;;7.30;98.90;;;;;;5113302;28;20057;-73
2022/11/13 07:19:13;;;;;;;20.13;9.57;;;7.30;98.90;;;;;;5113093;28;20046;-73
2022/11/13 07:21:38;;;;;;;19.70;9.93;;;7.30;98.90;;;;;;5113373;28;20062;-72
2022/11/13 07:24:05;;;;;;;20.77;10.55;;;7.30;98.80;;;;;;5112807;28;20103;-73
2022/11/13 07:26:31;;;;;;;24.27;9.70;;;7.30;98.80;;;;;;5113423;28;20035;-72
2022/11/13 07:28:56;;;;;;;19.42;9.55;;;7.30;98.80;;;;;;5112852;28;20023;-72
2022/11/13 07:31:22;;;;;;;19.42;10.13;;;7.30;98.80;;;;;;5113028;28;20119;-72
2022/11/13 07:33:50;;;;;;;18.23;9.43;;;7.30;98.70;;;;;;5094850;28;20042;-72
2022/11/13 07:36:15;;;;;;;18.80;9.75;;;7.30;98.70;;;;;;5094941;28;20080;-74
2022/11/13 07:38:41;;;;;;;21.63;10.05;;;7.30;98.80;;;;;;5113314;28;20019;-73
2022/11/13 07:41:07;;;;;;;23.40;11.65;;;7.30;98.80;;;;;;5112798;28;20047;-73
2022/11/13 07:43:33;;;;;;;21.80;10.27;;;7.30;98.80;;;;;;5112621;28;20047;-73
2022/11/13 07:45:59;;;;;;;20.42;10.75;;;7.40;99.00;;;;;;5112756;28;20031;-74
2022/11/13 07:48:26;;;;;;;22.50;11.50;;;7.50;99.20;;;;;;5094653;28;20093;-74
2022/11/13 07:50:52;;;;;;;22.17;11.02;;;7.60;99.00;;;;;;5095163;28;20380;-74
2022/11/13 07:53:19;;;;;;;22.77;10.38;;;7.70;99.10;;;;;;5094815;28;20036;-73
2022/11/13 07:55:45;;;;;;;19.63;10.20;;;7.60;98.90;;;;;;5112456;28;20168;-73
2022/11/13 07:58:11;;;;;;;17.85;9.57;;;7.60;98.90;;;;;;5112473;28;20024;-72
2022/11/13 08:00:36;;;;;;;26.48;10.93;;;7.70;98.90;;;;;;5111968;28;20088;-75
2022/11/13 08:03:07;;;;;;;20.13;10.82;;;7.70;98.90;;;;;;5112557;28;20027;-75
2022/11/13 08:05:33;;;;;;;20.58;11.32;;;7.70;99.00;;;;;;5113236;28;20028;-77
2022/11/13 08:07:59;;;;;;;18.10;9.82;;;7.70;99.00;;;;;;5112505;28;20038;-76
2022/11/13 08:10:25;;;;;;;23.95;11.98;;;7.80;99.10;;;;;;5094294;28;20031;-76
2022/11/13 08:13:01;;;;;;;18.23;11.00;;;7.90;99.10;;;;;;5111847;28;20529;-74
2022/11/13 08:15:28;;;;;;;20.70;10.45;;;8.00;99.20;;;;;;5111719;28;20044;-74
2022/11/13 08:17:58;;;;;;;19.63;11.00;;;8.20;99.20;;;;;;5112219;28;20496;-75
2022/11/13 08:20:26;;;;;;;18.02;9.85;;;8.30;99.20;;;;;;5111978;28;20354;-74
2022/11/13 08:22:55;;;;;;;23.67;10.95;;;8.30;99.00;;;;;;5111838;28;20051;-73
2022/11/13 08:25:22;;;;;;;19.63;10.50;;;8.40;99.00;;;;;;5112130;28;20047;-76
2022/11/13 08:27:47;;;;;;;18.92;10.27;;;8.40;98.90;;;;;;5093893;28;20024;-77
2022/11/13 08:30:13;;;;;;;21.55;11.88;;;8.40;98.80;;;;;;5117302;28;20316;-78
2022/11/13 08:32:39;;;;;;;24.25;12.93;;;8.50;99.00;;;;;;5112008;28;20427;-78
2022/11/13 08:35:05;;;;;;;21.00;11.52;;;8.70;99.10;;;;;;5111957;28;20074;-77
2022/11/13 08:37:32;;;;;;;24.27;11.65;;;8.80;99.00;;;;;;5095124;28;20028;-77
2022/11/13 08:39:57;;;;;;;28.90;12.15;;;8.90;98.90;;;;;;5112877;28;20039;-75
2022/11/13 08:42:23;;;;;;;27.50;12.73;;;9.00;98.80;;;;;;5093355;28;20120;-71
2022/11/13 08:44:49;;;;;;;29.02;12.57;;;9.10;98.70;;;;;;5111970;28;20042;-70
2022/11/13 08:47:14;;;;;;;33.08;14.02;;;9.20;98.60;;;;;;5093507;28;20113;-70
2022/11/13 08:49:41;;;;;;;30.73;13.75;;;9.20;98.50;;;;;;5111810;28;20027;-69
2022/11/13 08:52:07;;;;;;;26.52;12.85;;;9.30;98.50;;;;;;5111803;28;20346;-70
2022/11/13 08:54:32;;;;;;;23.02;12.90;;;9.30;98.40;;;;;;5112156;28;20045;-75
2022/11/13 08:56:58;;;;;;;26.70;12.05;;;9.40;98.40;;;;;;5093966;28;20118;-72
2022/11/13 08:59:25;;;;;;;23.83;13.52;;;9.40;98.40;;;;;;5084394;28;20185;-75
2022/11/13 09:01:57;;;;;;;25.92;12.02;;;9.50;98.40;;;;;;5090997;28;20300;-73
2022/11/13 09:04:24;;;;;;;20.70;12.10;;;9.50;98.20;;;;;;5091112;28;20457;-74
2022/11/13 09:06:51;;;;;;;23.95;12.38;;;9.60;98.20;;;;;;5091276;28;20032;-73
2022/11/13 09:09:17;;;;;;;19.67;12.07;;;9.60;98.20;;;;;;5090952;28;20035;-72
2022/11/13 09:11:43;;;;;;;22.02;11.95;;;9.70;98.30;;;;;;5091713;28;20051;-72
2022/11/13 09:14:08;;;;;;;23.10;12.18;;;9.70;98.20;;;;;;5090694;28;20526;-74
2022/11/13 09:16:34;;;;;;;21.02;12.18;;;9.70;98.20;;;;;;5091141;28;20028;-74
2022/11/13 09:19:00;;;;;;;23.42;11.75;;;9.80;98.30;;;;;;5073200;28;20178;-73
2022/11/13 09:21:25;;;;;;;25.73;12.82;;;9.90;98.10;;;;;;5096819;28;20343;-72
2022/11/13 09:23:51;;;;;;;23.92;12.50;;;9.90;98.10;;;;;;5112269;28;20027;-73
2022/11/13 09:26:17;;;;;;;25.05;12.82;;;10.00;97.70;;;;;;5110848;28;20415;-72
2022/11/13 09:28:42;;;;;;;27.20;13.80;;;10.00;97.70;;;;;;5110246;28;20028;-73
2022/11/13 09:31:08;;;;;;;24.63;13.45;;;10.10;97.70;;;;;;5111095;28;20036;-72
2022/11/13 09:33:34;;;;;;;28.05;14.60;;;10.10;97.50;;;;;;5111221;28;20043;-74
2022/11/13 09:36:00;;;;;;;24.65;13.75;;;10.10;97.50;;;;;;5111899;28;20513;-71
2022/11/13 09:38:25;;;;;;;24.60;12.13;;;10.10;97.50;;;;;;5111200;28;20032;-73
2022/11/13 09:40:57;;;;;;;22.40;11.88;;;10.20;97.50;;;;;;5111010;28;20050;-71
2022/11/13 09:43:47;;;;;;;20.77;11.07;;;10.20;97.40;;;;;;5110607;28;20515;-71
2022/11/13 09:46:31;;;;;;;19.73;11.73;;;10.10;97.50;;;;;;5111915;28;20131;-73
2022/11/13 09:49:05;;;;;;;22.77;12.60;;;10.10;97.40;;;;;;5111097;28;20042;-71
2022/11/13 09:51:36;;;;;;;20.05;11.82;;;10.10;97.60;;;;;;5111061;28;20477;-71
2022/11/13 09:54:08;;;;;;;24.30;13.40;;;10.20;97.50;;;;;;5111118;28;20085;-70
2022/11/13 09:56:46;;;;;;;31.38;15.15;;;10.20;97.40;;;;;;5111562;28;20126;-71
2022/11/13 09:59:15;;;;;;;;;;;10.20;97.30;;;;;;5110643;28;20093;-71
2022/11/13 10:01:56;;;;;;;24.13;12.80;;;10.30;97.50;;;;;;5092305;28;20035;-71
2022/11/13 10:04:33;;;;;;;27.20;12.65;;;10.40;97.30;;;;;;5110575;28;20034;-71
2022/11/13 10:07:13;;;;;;;31.23;15.63;;;10.40;97.20;;;;;;5092519;28;20028;-72
2022/11/13 10:09:38;;;;;;;31.23;15.57;;;10.40;97.10;;;;;;5110548;28;20263;-72
2022/11/13 10:12:07;;;;;;;28.73;15.07;;;10.50;96.80;;;;;;5110455;28;20023;-72
2022/11/13 10:14:42;;;;;;;29.27;15.15;;;10.50;96.80;;;;;;5110895;28;20489;-72
2022/11/13 10:17:22;;;;;;;28.08;13.80;;;10.50;96.60;;;;;;5110442;28;20038;-72
2022/11/13 10:20:00;;;;;;;24.02;13.02;;;10.50;96.50;;;;;;5110654;28;20046;-73
2022/11/13 10:22:47;;;;;;;23.83;13.43;;;10.60;97.00;;;;;;5110673;28;20034;-73
2022/11/13 10:25:15;;;;;;;21.65;13.48;;;10.60;96.40;;;;;;5108080;28;20177;-76
2022/11/13 10:27:43;;;;;;;25.80;13.57;;;10.60;96.30;;;;;;5090172;28;20085;-75
2022/11/13 10:30:17;;;;;;;20.95;13.13;;;10.60;96.30;;;;;;5072199;28;20399;-76
2022/11/13 10:32:44;;;;;;;22.38;12.57;;;10.70;96.40;;;;;;5090479;28;20571;-76
2022/11/13 10:35:34;;;;;;;21.08;12.82;;;11.10;96.50;;;;;;5090062;28;20032;-76
2022/11/13 10:38:24;;;;;;;23.83;12.95;;;11.90;96.00;;;;;;5089888;28;20039;-74
2022/11/13 10:40:50;;;;;;;22.30;12.73;;;13.00;94.80;;;;;;5092699;28;20032;-74
2022/11/13 10:43:22;;;;;;;22.08;11.95;;;14.10;94.50;;;;;;5093422;28;20051;-73
2022/11/13 10:46:03;;;;;;;19.92;11.55;;;15.20;93.60;;;;;;5093476;28;20050;-70
2022/11/13 10:48:34;;;;;;;18.38;11.70;;;14.80;91.40;;;;;;5075770;28;20504;-73
2022/11/13 10:51:06;;;;;;;19.40;12.23;;;14.90;92.40;;;;;;5076258;28;20020;-73
2022/11/13 10:53:38;;;;;;;18.70;11.32;;;15.30;90.90;;;;;;5093693;28;20470;-72
2022/11/13 10:56:31;;;;;;;21.08;11.75;;;15.60;91.20;;;;;;5075423;28;20032;-73
2022/11/13 10:59:12;;;;;;;20.10;11.90;;;16.30;90.60;;;;;;5075200;28;20029;-74
2022/11/13 11:01:40;;;;;;;18.65;11.50;;;16.80;89.30;;;;;;5093138;28;20029;-73
2022/11/13 11:04:10;;;;;;;22.02;13.25;;;17.20;88.60;;;;;;5093276;28;20028;-74
2022/11/13 11:06:40;;;;;;;20.13;13.20;;;17.30;88.10;;;;;;5075408;28;20089;-75
2022/11/13 11:09:26;;;;;;;23.20;13.50;;;17.70;87.90;;;;;;5093317;28;20081;-73
2022/11/13 11:12:15;;;;;;;25.45;14.85;;;17.50;85.30;;;;;;5093822;28;20016;-74
2022/11/13 11:15:00;;;;;;;31.13;15.70;;;17.10;85.00;;;;;;5075464;28;20046;-75
2022/11/13 11:17:45;;;;;;;26.77;15.38;;;16.60;86.10;;;;;;5093765;28;20476;-72
2022/11/13 11:20:19;;;;;;;25.17;14.30;;;16.40;86.40;;;;;;5093215;28;20043;-74
2022/11/13 11:22:59;;;;;;;24.60;14.55;;;15.80;87.50;;;;;;5092759;28;20453;-73
2022/11/13 11:25:28;;;;;;;30.20;17.17;;;15.30;88.60;;;;;;5092892;28;20086;-72
2022/11/13 11:28:32;;;;;;;25.00;15.45;;;14.80;90.00;;;;;;5092914;28;20043;-72
2022/11/13 11:31:10;;;;;;;27.35;15.52;;;14.60;90.30;;;;;;5092671;28;20055;-73
2022/11/13 11:33:55;;;;;;;29.90;16.98;;;14.10;90.80;;;;;;5092923;28;20076;-74
2022/11/13 11:36:32;;;;;;;29.50;15.55;;;13.70;91.20;;;;;;5092625;28;20047;-75
2022/11/13 11:39:31;;;;;;;32.80;16.75;;;13.40;91.70;;;;;;5092937;28;20035;-71
2022/11/13 11:42:12;;;;;;;31.83;17.30;;;13.00;92.30;;;;;;5092720;28;20111;-79
2022/11/13 11:45:11;;;;;;;33.75;18.85;;;12.90;92.60;;;;;;5092932;28;20020;-73
2022/11/13 11:47:37;;;;;;;38.38;18.42;;;12.60;93.10;;;;;;5074595;28;20040;-74
2022/11/13 11:50:09;;;;;;;33.13;17.05;;;12.50;93.50;;;;;;5092404;28;20024;-76
2022/11/13 11:52:55;;;;;;;36.97;19.25;;;12.40;93.70;;;;;;5074275;28;20039;-74
2022/11/13 11:55:56;;;;;;;31.02;17.23;;;12.40;93.90;;;;;;5092153;28;20152;-74
2022/11/13 11:58:46;;;;;;;31.38;16.83;;;12.40;93.90;;;;;;5092154;28;20093;-74
2022/11/13 12:01:47;;;;;;;33.00;17.20;;;12.20;94.20;;;;;;5091992;28;20040;-75
2022/11/13 12:04:34;;;;;;;33.08;17.92;;;12.20;94.20;;;;;;5092069;28;20043;-73
2022/11/13 12:07:05;;;;;;;30.55;17.15;;;12.20;94.50;;;;;;5074134;28;20460;-73
2022/11/13 12:09:45;;;;;;;37.50;19.48;;;12.10;94.70;;;;;;5092040;28;20044;-74
2022/11/13 12:12:41;;;;;;;32.40;17.23;;;12.00;95.00;;;;;;5073825;28;20111;-74
2022/11/13 12:15:31;;;;;;;32.22;17.40;;;12.10;95.10;;;;;;5091130;28;20032;-71
2022/11/13 12:18:12;;;;;;;32.40;17.02;;;11.80;95.60;;;;;;5092269;28;20020;-73
2022/11/13 12:20:53;;;;;;;37.40;17.40;;;11.80;95.50;;;;;;5091742;28;20028;-74
2022/11/13 12:23:27;;;;;;;43.65;22.85;;;11.90;95.60;;;;;;5091605;28;20173;-73
2022/11/13 12:26:24;;;;;;;49.13;24.42;;;12.00;95.50;;;;;;5091505;28;20028;-71
2022/11/13 12:28:55;;;;;;;60.20;26.83;;;11.90;95.70;;;;;;5091327;28;20044;-71
2022/11/13 12:31:58;;;;;;;64.00;30.58;;;11.90;95.70;;;;;;5073874;28;20442;-74
2022/11/13 12:34:40;;;;;;;51.97;27.15;;;11.70;96.00;;;;;;5073381;28;20032;-75
2022/11/13 12:37:20;;;;;;;55.63;27.27;;;11.70;96.00;;;;;;5091358;28;20036;-74
2022/11/13 12:40:03;;;;;;;51.35;25.90;;;11.60;96.20;;;;;;5073608;28;20642;-75
2022/11/13 12:42:47;;;;;;;50.85;25.30;;;11.50;96.60;;;;;;5091091;28;20048;-73
2022/11/13 12:45:28;;;;;;;53.97;25.60;;;11.40;96.90;;;;;;5091365;28;20152;-74
2022/11/13 12:47:53;;;;;;;47.08;23.58;;;11.40;96.90;;;;;;5091882;28;20016;-75
2022/11/13 12:50:28;;;;;;;43.85;23.92;;;11.50;96.80;;;;;;5091196;28;20024;-77
2022/11/13 12:53:02;;;;;;;43.40;24.48;;;11.40;96.60;;;;;;5073050;28;20040;-77
2022/11/13 12:55:36;;;;;;;42.95;22.80;;;11.60;96.70;;;;;;5091383;28;20032;-75
2022/11/13 12:58:33;;;;;;;46.50;24.48;;;11.50;96.70;;;;;;5091380;28;20089;-75